Time;durP1;ratioP1;P1;durP2;ratioP2;P2;SDS_P1;SDS_P2;PMS_P1;PMS_P2;Temp;Humidity;BMP_temperature;BMP_pressure;BME280_temperature;BME280_humidity;BME280_pressure;Samples;Min_cycle;Max_cycle;Signal;HPM_P1;HPM_P2
2023/07/29 00:00:45;;;;;;;0.00;0.00;;;;;;;15.64;nan;99423.69;6243779;22;20010;-75
2023/07/29 00:03:10;;;;;;;0.00;0.00;;;;;;;15.63;nan;99414.59;6241881;23;20741;-75
2023/07/29 00:05:39;;;;;;;0.00;0.00;;;;;;;15.62;nan;99414.94;6242630;23;20000;-76
2023/07/29 00:08:05;;;;;;;0.00;0.00;;;;;;;15.64;nan;99412.69;6243208;22;20004;-75
2023/07/29 00:10:32;;;;;;;0.00;0.00;;;;;;;15.52;nan;99378.31;6243064;23;20331;-75
2023/07/29 00:12:59;;;;;;;0.00;0.00;;;;;;;15.69;nan;99404.22;6217230;23;20015;-75
2023/07/29 00:15:24;;;;;;;0.00;0.00;;;;;;;15.72;nan;99400.81;6246526;22;20100;-74
2023/07/29 00:17:50;;;;;;;0.00;0.00;;;;;;;15.75;nan;99408.44;6272652;22;20036;-75
2023/07/29 00:20:15;;;;;;;0.00;0.00;;;;;;;15.69;nan;99396.75;6274829;22;20189;-75
2023/07/29 00:22:41;;;;;;;0.00;0.00;;;;;;;15.71;nan;99402.78;6220586;22;20020;-74
2023/07/29 00:25:07;;;;;;;0.00;0.00;;;;;;;15.69;nan;99393.19;6273832;22;20326;-75
2023/07/29 00:27:32;;;;;;;0.00;0.00;;;;;;;15.74;nan;99392.22;6245172;22;20693;-74
2023/07/29 00:29:57;;;;;;;0.00;0.00;;;;;;;15.71;nan;99391.75;6196742;22;20011;-75
2023/07/29 00:32:23;;;;;;;0.00;0.00;;;;;;;15.75;nan;99397.41;6220822;22;20034;-74
2023/07/29 00:34:48;;;;;;;0.00;0.00;;;;;;;15.76;nan;99392.72;6246351;22;20000;-74
2023/07/29 00:37:13;;;;;;;0.00;0.00;;;;;;;15.70;nan;99384.59;6272963;22;20012;-75
2023/07/29 00:39:41;;;;;;;0.00;0.00;;;;;;;15.72;nan;99392.56;6246155;22;20425;-74
2023/07/29 00:42:07;;;;;;;0.00;0.00;;;;;;;15.69;nan;99390.44;6219899;22;20337;-75
2023/07/29 00:44:32;;;;;;;0.00;0.00;;;;;;;15.70;nan;99394.84;6220148;22;20032;-75
2023/07/29 00:47:00;;;;;;;0.00;0.00;;;;;;;15.71;nan;99390.91;6221852;22;20091;-75
2023/07/29 00:49:28;;;;;;;0.00;0.00;;;;;;;15.71;nan;99385.41;6246701;22;20012;-74
2023/07/29 00:51:54;;;;;;;0.00;0.00;;;;;;;15.64;nan;99376.84;6247301;22;20160;-75
2023/07/29 00:54:19;;;;;;;0.00;0.00;;;;;;;15.59;nan;99365.97;6245699;22;20003;-75
2023/07/29 00:56:45;;;;;;;0.00;0.00;;;;;;;15.61;nan;99369.22;6273477;22;20721;-74
2023/07/29 00:59:11;;;;;;;0.00;0.00;;;;;;;15.61;nan;99366.47;6220050;22;20007;-74
2023/07/29 01:01:36;;;;;;;0.00;0.00;;;;;;;15.57;nan;99358.03;6245829;22;20470;-74
2023/07/29 01:04:04;;;;;;;0.00;0.00;;;;;;;15.61;nan;99369.22;6246370;22;20003;-75
2023/07/29 01:06:48;;;;;;;0.00;0.00;;;;;;;15.61;nan;99374.72;6195953;22;20012;-74
2023/07/29 01:09:40;;;;;;;0.00;0.00;;;;;;;15.58;nan;99372.63;6245170;22;20437;-73
2023/07/29 01:12:12;;;;;;;0.00;0.00;;;;;;;15.58;nan;99375.38;6246071;22;19999;-74
2023/07/29 01:15:09;;;;;;;0.00;0.00;;;;;;;15.56;nan;99374.91;6243111;22;20014;-74
2023/07/29 01:17:43;;;;;;;0.00;0.00;;;;;;;15.50;nan;99368.75;6199407;22;20024;-74
2023/07/29 01:20:20;;;;;;;0.00;0.00;;;;;;;15.50;nan;99368.75;6246083;22;20073;-73
2023/07/29 01:22:47;;;;;;;0.00;0.00;;;;;;;15.47;nan;99359.19;6246616;22;20061;-74
2023/07/29 01:25:13;;;;;;;0.00;0.00;;;;;;;15.41;nan;99356.94;6273268;22;20478;-74
2023/07/29 01:27:38;;;;;;;0.00;0.00;;;;;;;15.42;nan;99362.09;6246252;22;20437;-74
2023/07/29 01:30:05;;;;;;;0.00;0.00;;;;;;;15.37;nan;99356.75;6245153;22;20011;-74
2023/07/29 01:32:39;;;;;;;0.00;0.00;;;;;;;15.38;nan;99357.56;6243371;22;20018;-74
2023/07/29 01:35:23;;;;;;;0.00;0.00;;;;;;;15.34;nan;99360.16;6247614;22;20008;-74
2023/07/29 01:37:56;;;;;;;0.00;0.00;;;;;;;15.30;nan;99350.91;6274477;22;19995;-74
2023/07/29 01:40:26;;;;;;;0.00;0.00;;;;;;;15.26;nan;99353.53;6248062;22;20090;-74
2023/07/29 01:42:52;;;;;;;0.00;0.00;;;;;;;15.25;nan;99351.09;6247157;22;20035;-73
2023/07/29 01:45:17;;;;;;;0.00;0.00;;;;;;;15.19;nan;99356.75;6248096;22;20337;-73
2023/07/29 01:47:42;;;;;;;0.00;0.00;;;;;;;15.23;nan;99358.84;6197186;22;20069;-73
2023/07/29 01:50:09;;;;;;;0.00;0.00;;;;;;;15.23;nan;99359.69;6248802;22;20015;-73
2023/07/29 01:52:34;;;;;;;0.00;0.00;;;;;;;15.25;nan;99362.09;6246788;22;20334;-73
2023/07/29 01:55:00;;;;;;;0.00;0.00;;;;;;;15.19;nan;99359.50;6248007;22;20010;-74
2023/07/29 01:57:25;;;;;;;0.00;0.00;;;;;;;15.21;nan;99355.63;6273935;22;20058;-76
2023/07/29 01:59:51;;;;;;;0.00;0.00;;;;;;;15.19;nan;99354.00;6222161;22;20026;-74
2023/07/29 02:02:16;;;;;;;0.00;0.00;;;;;;;15.18;nan;99352.34;6221329;22;20012;-74
2023/07/29 02:04:41;;;;;;;0.00;0.00;;;;;;;15.19;nan;99354.00;6221818;22;20003;-75
2023/07/29 02:07:07;;;;;;;0.00;0.00;;;;;;;15.19;nan;99354.00;6222025;22;20308;-74
2023/07/29 02:09:32;;;;;;;0.00;0.00;;;;;;;15.18;nan;99349.59;6245318;22;20034;-75
2023/07/29 02:11:57;;;;;;;0.00;0.00;;;;;;;15.18;nan;99363.38;6218593;22;20007;-73
2023/07/29 02:14:23;;;;;;;0.00;0.00;;;;;;;15.16;nan;99362.09;6271944;22;20011;-74
2023/07/29 02:16:49;;;;;;;0.00;0.00;;;;;;;15.16;nan;99360.16;6271812;22;20058;-73
2023/07/29 02:19:15;;;;;;;0.00;0.00;;;;;;;15.15;nan;99357.72;6245021;22;20012;-73
2023/07/29 02:21:40;;;;;;;0.00;0.00;;;;;;;15.18;nan;99368.88;6219531;22;20726;-74
2023/07/29 02:24:05;;;;;;;0.00;0.00;;;;;;;15.17;nan;99356.28;6219564;22;20007;-75
2023/07/29 02:26:31;;;;;;;0.00;0.00;;;;;;;15.15;nan;99350.25;6244958;22;20042;-73
2023/07/29 02:28:56;;;;;;;0.00;0.00;;;;;;;15.13;nan;99344.28;6219220;22;20004;-75
2023/07/29 02:31:24;;;;;;;0.00;0.00;;;;;;;15.10;nan;99350.44;6220720;22;20004;-75
2023/07/29 02:33:50;;;;;;;0.00;0.00;;;;;;;15.11;nan;99352.06;6273456;22;20004;-75
2023/07/29 02:36:16;;;;;;;0.00;0.00;;;;;;;15.10;nan;99347.69;6245216;22;20613;-74
2023/07/29 02:38:42;;;;;;;0.00;0.00;;;;;;;15.07;nan;99345.56;6272754;22;20090;-74
2023/07/29 02:41:09;;;;;;;0.00;0.00;;;;;;;15.08;nan;99352.69;6243273;22;20454;-73
2023/07/29 02:43:35;;;;;;;0.00;0.00;;;;;;;15.08;nan;99346.38;6220810;22;20011;-74
2023/07/29 02:46:01;;;;;;;0.00;0.00;;;;;;;15.10;nan;99341.34;6244351;22;20422;-73
2023/07/29 02:48:28;;;;;;;0.00;0.00;;;;;;;15.07;nan;99350.25;6245869;22;20018;-74
2023/07/29 02:50:53;;;;;;;0.00;0.00;;;;;;;15.08;nan;99355.44;6244711;22;20448;-74
2023/07/29 02:53:19;;;;;;;0.00;0.00;;;;;;;15.05;nan;99330.50;6271934;22;20011;-75
2023/07/29 02:55:44;;;;;;;0.00;0.00;;;;;;;15.05;nan;99342.31;6244725;22;20031;-74
2023/07/29 02:58:10;;;;;;;0.00;0.00;;;;;;;15.06;nan;99341.19;6245604;22;20201;-75
2023/07/29 03:00:35;;;;;;;0.00;0.00;;;;;;;15.01;nan;99324.84;6192382;22;20145;-74
2023/07/29 03:03:01;;;;;;;0.00;0.00;;;;;;;15.02;nan;99326.44;6219130;22;20393;-73
2023/07/29 03:05:29;;;;;;;0.00;0.00;;;;;;;15.00;nan;99326.75;6220265;22;20007;-74
2023/07/29 03:07:55;;;;;;;0.00;0.00;;;;;;;15.02;nan;99331.94;6244482;22;20007;-74
2023/07/29 03:10:20;;;;;;;0.00;0.00;;;;;;;15.01;nan;99327.59;6221108;22;20011;-74
2023/07/29 03:12:46;;;;;;;0.00;0.00;;;;;;;15.04;nan;99321.44;6217021;22;20015;-73
2023/07/29 03:15:12;;;;;;;0.00;0.00;;;;;;;15.05;nan;99331.31;6218452;22;20011;-74
2023/07/29 03:17:38;;;;;;;0.00;0.00;;;;;;;15.04;nan;99328.88;6242601;22;20050;-74
2023/07/29 03:20:04;;;;;;;0.00;0.00;;;;;;;15.08;nan;99327.91;6271673;22;20035;-73
2023/07/29 03:22:29;;;;;;;0.00;0.00;;;;;;;15.09;nan;99324.03;6241751;22;20015;-73
2023/07/29 03:24:55;;;;;;;0.00;0.00;;;;;;;15.14;nan;99326.63;6244443;22;20012;-73
2023/07/29 03:27:20;;;;;;;0.00;0.00;;;;;;;15.14;nan;99323.88;6271234;22;20326;-74
2023/07/29 03:29:46;;;;;;;0.00;0.00;;;;;;;15.13;nan;99319.50;6242336;22;20012;-73
2023/07/29 03:32:11;;;;;;;0.00;0.00;;;;;;;15.13;nan;99321.44;6244572;22;20054;-73
2023/07/29 03:34:37;;;;;;;0.00;0.00;;;;;;;15.11;nan;99319.03;6220196;22;20004;-75
2023/07/29 03:37:02;;;;;;;0.00;0.00;;;;;;;15.10;nan;99322.06;6221621;22;20456;-75
2023/07/29 03:39:28;;;;;;;0.00;0.00;;;;;;;15.07;nan;99329.06;6246446;22;20000;-74
2023/07/29 03:41:53;;;;;;;0.00;0.00;;;;;;;14.98;nan;99319.97;6247562;22;20030;-74
2023/07/29 03:44:18;;;;;;;0.00;0.00;;;;;;;15.02;nan;99326.44;6273762;22;19996;-74
2023/07/29 03:46:44;;;;;;;0.00;0.00;;;;;;;15.02;nan;99320.94;6244978;22;20014;-74
2023/07/29 03:49:10;;;;;;;0.00;0.00;;;;;;;14.99;nan;99305.88;6245423;22;20026;-74
2023/07/29 03:51:35;;;;;;;0.00;0.00;;;;;;;15.01;nan;99311.06;6245709;22;20015;-74
2023/07/29 03:54:01;;;;;;;0.00;0.00;;;;;;;15.01;nan;99305.56;6272200;22;20426;-74
2023/07/29 03:56:26;;;;;;;0.00;0.00;;;;;;;14.99;nan;99316.06;6246803;22;20000;-75
2023/07/29 03:58:52;;;;;;;0.00;0.00;;;;;;;15.01;nan;99335.84;6248505;22;20014;-74
2023/07/29 04:01:18;;;;;;;0.00;0.00;;;;;;;15.07;nan;99340.06;6274693;22;20011;-75
2023/07/29 04:03:45;;;;;;;0.00;0.00;;;;;;;15.15;nan;99341.19;6222960;22;20012;-74
2023/07/29 04:06:14;;;;;;;0.00;0.00;;;;;;;15.21;nan;99339.91;6246415;22;20107;-74
2023/07/29 04:08:40;;;;;;;0.00;0.00;;;;;;;15.28;nan;99339.41;6274254;22;20418;-73
2023/07/29 04:11:06;;;;;;;0.00;0.00;;;;;;;15.33;nan;99342.00;6244841;22;20011;-73
2023/07/29 04:13:31;;;;;;;0.00;0.00;;;;;;;15.36;nan;99335.84;6218547;22;20488;-75
2023/07/29 04:15:57;;;;;;;0.00;0.00;;;;;;;15.43;nan;99336.16;6240732;23;20039;-73
2023/07/29 04:18:22;;;;;;;0.00;0.00;;;;;;;15.45;nan;99339.41;6214606;23;20015;-74
2023/07/29 04:20:47;;;;;;;0.00;0.00;;;;;;;15.48;nan;99344.28;6212959;23;20012;-74
2023/07/29 04:23:15;;;;;;;0.00;0.00;;;;;;;15.39;nan;99324.19;6239820;23;20086;-73
2023/07/29 04:25:40;;;;;;;0.00;0.00;;;;;;;15.49;nan;99343.16;6239658;23;20095;-74
2023/07/29 04:28:06;;;;;;;0.00;0.00;;;;;;;15.46;nan;99335.53;6213276;23;20031;-73
2023/07/29 04:30:31;;;;;;;0.00;0.00;;;;;;;15.52;nan;99342.50;6214264;23;20008;-76
2023/07/29 04:32:57;;;;;;;0.00;0.00;;;;;;;15.52;nan;99339.75;6239094;23;20667;-72
2023/07/29 04:35:22;;;;;;;0.00;0.00;;;;;;;15.56;nan;99336.31;6214083;23;20089;-74
2023/07/29 04:37:48;;;;;;;0.00;0.00;;;;;;;15.58;nan;99342.31;6216176;23;20036;-73
2023/07/29 04:40:14;;;;;;;0.00;0.00;;;;;;;15.57;nan;99336.00;6239998;23;20054;-74
2023/07/29 04:42:39;;;;;;;0.00;0.00;;;;;;;15.58;nan;99337.63;6241461;23;20105;-74
2023/07/29 04:45:05;;;;;;;0.00;0.00;;;;;;;15.58;nan;99336.81;6240998;23;20446;-74
2023/07/29 04:47:31;;;;;;;0.00;0.00;;;;;;;15.54;nan;99331.16;6240291;23;20000;-73
2023/07/29 04:49:56;;;;;;;0.00;0.00;;;;;;;15.52;nan;99342.50;6241157;23;20050;-74
2023/07/29 04:52:21;;;;;;;0.00;0.00;;;;;;;15.47;nan;99339.88;6191297;23;20008;-75
2023/07/29 04:54:47;;;;;;;0.00;0.00;;;;;;;15.46;nan;99335.53;6240645;23;20716;-76
2023/07/29 04:57:12;;;;;;;0.00;0.00;;;;;;;15.41;nan;99327.44;6243827;22;20014;-75
2023/07/29 04:59:38;;;;;;;0.00;0.00;;;;;;;15.44;nan;99328.72;6214728;23;20004;-75
2023/07/29 05:02:03;;;;;;;0.00;0.00;;;;;;;15.48;nan;99332.47;6241619;23;20004;-74
2023/07/29 05:04:29;;;;;;;0.00;0.00;;;;;;;15.50;nan;99336.47;6240596;23;20004;-74
2023/07/29 05:06:54;;;;;;;0.00;0.00;;;;;;;15.58;nan;99334.03;6192033;23;20163;-75
2023/07/29 05:09:20;;;;;;;0.00;0.00;;;;;;;15.63;nan;99333.88;6216035;23;20004;-75
2023/07/29 05:11:45;;;;;;;0.00;0.00;;;;;;;15.67;nan;99343.13;6216958;23;20054;-76
2023/07/29 05:14:13;;;;;;;0.00;0.00;;;;;;;15.63;nan;99339.41;6242754;22;20000;-75
2023/07/29 05:16:38;;;;;;;0.00;0.00;;;;;;;15.59;nan;99339.22;6215137;23;20058;-73
2023/07/29 05:19:04;;;;;;;0.00;0.00;;;;;;;15.58;nan;99347.81;6188773;23;20095;-76
2023/07/29 05:21:29;;;;;;;0.00;0.00;;;;;;;15.59;nan;99341.19;6216905;23;20008;-74
2023/07/29 05:23:55;;;;;;;0.00;0.00;;;;;;;15.62;nan;99348.78;6216036;23;20054;-75
2023/07/29 05:26:22;;;;;;;0.00;0.00;;;;;;;15.61;nan;99341.66;6241561;23;20098;-75
2023/07/29 05:28:47;;;;;;;0.00;0.00;;;;;;;15.68;nan;99348.31;6240181;23;20039;-75
2023/07/29 05:31:12;;;;;;;0.00;0.00;;;;;;;15.77;nan;99348.28;6241158;23;20122;-74
2023/07/29 05:33:38;;;;;;;0.00;0.00;;;;;;;15.82;nan;99342.63;6241266;22;20019;-74
2023/07/29 05:36:04;;;;;;;0.00;0.00;;;;;;;15.92;nan;99346.19;6239639;23;20461;-73
2023/07/29 05:38:30;;;;;;;0.00;0.00;;;;;;;15.97;nan;99348.75;6237431;23;20008;-73
2023/07/29 05:40:55;;;;;;;0.00;0.00;;;;;;;16.03;nan;99347.44;6239513;22;20066;-75
2023/07/29 05:43:21;;;;;;;0.00;0.00;;;;;;;16.10;nan;99342.22;6189626;23;20012;-73
2023/07/29 05:45:49;;;;;;;0.00;0.00;;;;;;;16.17;nan;99347.25;6213770;23;20497;-74
2023/07/29 05:48:14;;;;;;;0.00;0.00;;;;;;;16.19;nan;99345.78;6239048;23;20411;-73
2023/07/29 05:50:39;;;;;;;0.00;0.00;;;;;;;16.18;nan;99338.63;6213883;23;20043;-74
2023/07/29 05:53:05;;;;;;;0.00;0.00;;;;;;;16.22;nan;99341.53;6240911;23;20008;-74
2023/07/29 05:55:30;;;;;;;0.00;0.00;;;;;;;16.28;nan;99343.00;6215332;23;20008;-76
2023/07/29 05:57:57;;;;;;;0.00;0.00;;;;;;;16.33;nan;99350.28;6214802;23;20008;-75
2023/07/29 06:00:23;;;;;;;0.00;0.00;;;;;;;16.44;nan;99357.06;6191226;23;20010;-73
2023/07/29 06:02:48;;;;;;;0.00;0.00;;;;;;;16.55;nan;99355.50;6191141;23;20335;-75
2023/07/29 06:05:14;;;;;;;0.00;0.00;;;;;;;16.65;nan;99345.25;6189625;23;20609;-74
2023/07/29 06:07:44;;;;;;;0.00;0.00;;;;;;;16.81;nan;99354.56;6238913;23;20055;-74
2023/07/29 06:10:13;;;;;;;0.00;0.00;;;;;;;16.90;nan;99352.59;6238796;23;20004;-73
2023/07/29 06:12:38;;;;;;;0.00;0.00;;;;;;;16.98;nan;99361.16;6240778;22;20011;-74
2023/07/29 06:15:05;;;;;;;0.00;0.00;;;;;;;16.95;nan;99353.53;6239909;23;20004;-73
2023/07/29 06:17:30;;;;;;;0.00;0.00;;;;;;;16.90;nan;99349.03;6237398;22;20065;-73
2023/07/29 06:19:55;;;;;;;0.00;0.00;;;;;;;16.80;nan;99352.94;6240713;22;20036;-73
2023/07/29 06:22:21;;;;;;;0.00;0.00;;;;;;;16.67;nan;99349.28;6239765;23;20011;-73
2023/07/29 06:24:46;;;;;;;0.00;0.00;;;;;;;16.51;nan;99356.50;6238603;23;20012;-73
2023/07/29 06:27:12;;;;;;;0.00;0.00;;;;;;;16.44;nan;99359.81;6240099;22;20000;-72
2023/07/29 06:29:37;;;;;;;0.00;0.00;;;;;;;16.46;nan;99365.78;6241894;23;20015;-75
2023/07/29 06:32:05;;;;;;;0.00;0.00;;;;;;;16.52;nan;99372.75;6188063;23;20035;-73
2023/07/29 06:34:31;;;;;;;0.00;0.00;;;;;;;16.55;nan;99372.06;6213817;23;20031;-73
2023/07/29 06:36:56;;;;;;;0.00;0.00;;;;;;;16.58;nan;99373.38;6212485;23;20427;-73
2023/07/29 06:39:22;;;;;;;0.00;0.00;;;;;;;16.64;nan;99379.50;6189436;23;20012;-74
2023/07/29 06:41:47;;;;;;;0.00;0.00;;;;;;;16.66;nan;99388.25;6240963;22;20034;-73
2023/07/29 06:44:13;;;;;;;0.00;0.00;;;;;;;16.74;nan;99374.41;6214336;23;20012;-73
2023/07/29 06:46:39;;;;;;;0.00;0.00;;;;;;;16.81;nan;99376.66;6239146;23;20350;-74
2023/07/29 06:49:05;;;;;;;0.00;0.00;;;;;;;17.00;nan;99380.97;6189104;23;20016;-75
2023/07/29 06:51:35;;;;;;;0.00;0.00;;;;;;;17.26;nan;99373.31;6212553;23;20036;-74
2023/07/29 06:54:04;;;;;;;0.00;0.00;;;;;;;17.32;nan;99367.56;6240827;22;20004;-72
2023/07/29 06:56:29;;;;;;;0.00;0.00;;;;;;;17.38;nan;99380.06;6237285;23;21355;-72
2023/07/29 06:58:54;;;;;;;0.00;0.00;;;;;;;17.24;nan;99364.56;6214089;23;20054;-73
2023/07/29 07:01:20;;;;;;;0.00;0.00;;;;;;;17.17;nan;99378.09;6238279;23;20016;-73
2023/07/29 07:03:47;;;;;;;0.00;0.00;;;;;;;17.09;nan;99370.66;6237837;23;20019;-74
2023/07/29 07:06:13;;;;;;;0.00;0.00;;;;;;;17.12;nan;99385.78;6237748;23;20001;-74
2023/07/29 07:08:38;;;;;;;0.00;0.00;;;;;;;17.10;nan;99383.34;6240663;23;20008;-75
2023/07/29 07:11:04;;;;;;;0.00;0.00;;;;;;;17.09;nan;99377.00;6190118;23;20200;-74
2023/07/29 07:13:42;;;;;;;0.00;0.00;;;;;;;17.15;nan;99385.91;6242630;23;20064;-74
2023/07/29 07:16:07;;;;;;;0.00;0.00;;;;;;;17.16;nan;99382.00;6238548;22;20012;-74
2023/07/29 07:18:33;;;;;;;0.00;0.00;;;;;;;17.19;nan;99375.78;6242664;23;20016;-73
2023/07/29 07:21:00;;;;;;;0.00;0.00;;;;;;;17.21;nan;99373.50;6191442;23;20005;-73
2023/07/29 07:23:26;;;;;;;0.00;0.00;;;;;;;17.32;nan;99378.63;6218243;23;20095;-74
2023/07/29 07:25:51;;;;;;;0.00;0.00;;;;;;;17.40;nan;99375.00;6242775;23;20355;-73
2023/07/29 07:28:17;;;;;;;0.00;0.00;;;;;;;17.47;nan;99380.78;6217238;23;20411;-73
2023/07/29 07:30:42;;;;;;;0.00;0.00;;;;;;;17.52;nan;99377.81;6240864;23;20042;-75
2023/07/29 07:33:10;;;;;;;0.00;0.00;;;;;;;17.58;nan;99370.94;6242595;23;19997;-75
2023/07/29 07:35:43;;;;;;;0.00;0.00;;;;;;;17.79;nan;99386.69;6241848;23;20087;-74
2023/07/29 07:38:09;;;;;;;0.00;0.00;;;;;;;18.16;nan;99395.13;6241610;23;20054;-76
2023/07/29 07:40:35;;;;;;;0.00;0.00;;;;;;;18.44;nan;99373.16;6241496;23;20230;-74
2023/07/29 07:43:01;;;;;;;0.00;0.00;;;;;;;18.78;nan;99386.91;6216892;23;20081;-74
2023/07/29 07:45:26;;;;;;;0.00;0.00;;;;;;;19.05;nan;99376.28;6215709;23;20015;-75
2023/07/29 07:47:58;;;;;;;0.00;0.00;;;;;;;19.08;nan;99383.91;6242084;23;20389;-75
2023/07/29 07:50:24;;;;;;;0.00;0.00;;;;;;;19.29;nan;99389.28;6244624;22;20011;-76
2023/07/29 07:52:49;;;;;;;0.00;0.00;;;;;;;19.51;nan;99404.59;6243547;22;20008;-75
2023/07/29 07:55:15;;;;;;;0.00;0.00;;;;;;;19.49;nan;99393.03;6215931;23;20004;-74
2023/07/29 07:57:40;;;;;;;0.00;0.00;;;;;;;19.86;nan;99399.28;6243667;23;20511;-76
2023/07/29 08:00:06;;;;;;;0.00;0.00;;;;;;;20.17;nan;99408.84;6243785;23;20008;-75
2023/07/29 08:02:34;;;;;;;0.00;0.00;;;;;;;20.38;nan;99391.13;6217192;23;20012;-77
2023/07/29 08:05:02;;;;;;;0.00;0.00;;;;;;;20.61;nan;99404.41;6217104;23;20040;-78
2023/07/29 08:07:31;;;;;;;0.00;0.00;;;;;;;20.40;nan;99408.25;6243515;23;20027;-75
2023/07/29 08:09:59;;;;;;;0.00;0.00;;;;;;;20.17;nan;99416.38;6217145;23;20012;-75
2023/07/29 08:12:24;;;;;;;0.00;0.00;;;;;;;20.25;nan;99418.16;6242010;23;20008;-75
2023/07/29 08:14:49;;;;;;;0.00;0.00;;;;;;;20.30;nan;99417.91;6241634;23;20449;-76
2023/07/29 08:17:15;;;;;;;0.00;0.00;;;;;;;20.27;nan;99410.28;6239919;22;20340;-75
2023/07/29 08:19:44;;;;;;;0.00;0.00;;;;;;;20.44;nan;99408.34;6191259;23;20141;-75
2023/07/29 08:22:09;;;;;;;0.00;0.00;;;;;;;20.33;nan;99408.06;6241948;23;20015;-75
2023/07/29 08:24:35;;;;;;;0.00;0.00;;;;;;;20.34;nan;99421.59;6242068;23;20008;-74
2023/07/29 08:27:00;;;;;;;0.00;0.00;;;;;;;20.20;nan;99401.78;6241351;23;20107;-73
2023/07/29 08:29:26;;;;;;;0.00;0.00;;;;;;;20.38;nan;99411.38;6240526;23;20012;-74
2023/07/29 08:31:51;;;;;;;0.00;0.00;;;;;;;20.52;nan;99415.69;6191344;23;20020;-74
2023/07/29 08:34:17;;;;;;;0.00;0.00;;;;;;;20.61;nan;99416.31;6241147;23;20050;-76
2023/07/29 08:36:42;;;;;;;0.00;0.00;;;;;;;21.01;nan;99420.91;6216134;23;20099;-75
2023/07/29 08:39:08;;;;;;;0.00;0.00;;;;;;;21.48;nan;99415.56;6240679;23;20015;-76
2023/07/29 08:41:54;;;;;;;0.00;0.00;;;;;;;21.88;nan;99408.88;6240601;23;20054;-76
2023/07/29 08:44:37;;;;;;;0.00;0.00;;;;;;;21.92;nan;99423.66;6241317;23;20007;-76
2023/07/29 08:47:03;;;;;;;0.00;0.00;;;;;;;21.92;nan;99412.53;6242274;22;20012;-72
2023/07/29 08:49:29;;;;;;;0.00;0.00;;;;;;;22.17;nan;99418.56;6239711;22;20012;-73
2023/07/29 08:51:57;;;;;;;0.00;0.00;;;;;;;22.19;nan;99412.63;6188897;23;20423;-75
2023/07/29 08:54:23;;;;;;;0.00;0.00;;;;;;;21.92;nan;99430.03;6237937;23;20027;-74
2023/07/29 08:56:52;;;;;;;0.00;0.00;;;;;;;21.78;nan;99424.97;6241626;23;20039;-75
2023/07/29 08:59:22;;;;;;;0.00;0.00;;;;;;;21.87;nan;99419.19;6241279;22;20034;-76
2023/07/29 09:01:50;;;;;;;0.00;0.00;;;;;;;21.69;nan;99416.03;6239833;23;20008;-77
2023/07/29 09:04:15;;;;;;;0.00;0.00;;;;;;;21.24;nan;99414.66;6241696;23;20008;-76
2023/07/29 09:06:46;;;;;;;0.00;0.00;;;;;;;20.97;nan;99408.88;6241780;23;20434;-76
2023/07/29 09:09:12;;;;;;;0.00;0.00;;;;;;;20.81;nan;99420.03;6241805;23;20434;-76
2023/07/29 09:11:40;;;;;;;0.00;0.00;;;;;;;20.70;nan;99405.84;6216824;23;20031;-77
2023/07/29 09:14:06;;;;;;;0.00;0.00;;;;;;;20.87;nan;99424.13;6216235;23;20155;-77
2023/07/29 09:16:33;;;;;;;0.00;0.00;;;;;;;21.40;nan;99418.19;6255705;22;20054;-77
2023/07/29 09:19:01;;;;;;;0.00;0.00;;;;;;;21.78;nan;99424.97;6247282;22;20011;-76
2023/07/29 09:21:29;;;;;;;0.00;0.00;;;;;;;21.89;nan;99424.38;6246556;22;19999;-74
2023/07/29 09:23:55;;;;;;;0.00;0.00;;;;;;;21.94;nan;99424.09;6246207;22;20091;-76
2023/07/29 09:26:31;;;;;;;0.00;0.00;;;;;;;22.17;nan;99437.28;6243450;22;20617;-75
2023/07/29 09:29:00;;;;;;;0.00;0.00;;;;;;;22.12;nan;99428.03;6247631;22;20754;-76
2023/07/29 09:31:28;;;;;;;0.00;0.00;;;;;;;22.16;nan;99438.44;6275527;22;20010;-72
2023/07/29 09:34:03;;;;;;;0.00;0.00;;;;;;;21.41;nan;99419.81;6248375;22;20314;-74
2023/07/29 09:36:33;;;;;;;0.00;0.00;;;;;;;20.99;nan;99422.41;6248381;22;20079;-77
2023/07/29 09:39:03;;;;;;;0.00;0.00;;;;;;;21.36;nan;99427.63;6246607;22;20003;-75
2023/07/29 09:41:35;;;;;;;0.00;0.00;;;;;;;22.02;nan;99413.91;6246689;22;20031;-75
2023/07/29 09:44:03;;;;;;;0.00;0.00;;;;;;;22.72;nan;99425.94;6273505;22;20038;-77
2023/07/29 09:46:36;;;;;;;0.00;0.00;;;;;;;24.19;nan;99427.97;6248045;22;20014;-76
2023/07/29 09:49:08;;;;;;;0.00;0.00;;;;;;;24.62;nan;99432.41;6246802;22;20007;-78
2023/07/29 09:51:39;;;;;;;0.00;0.00;;;;;;;23.72;nan;99432.19;6273021;22;20000;-76
2023/07/29 09:54:12;;;;;;;0.00;0.00;;;;;;;22.69;nan;99443.38;6221140;22;20098;-76
2023/07/29 09:56:41;;;;;;;0.00;0.00;;;;;;;20.64;nan;99456.47;6246962;22;20037;-77
2023/07/29 09:59:07;;;;;;;0.00;0.00;;;;;;;18.31;nan;99449.81;6245780;22;20340;-77
2023/07/29 10:01:34;;;;;;;0.00;0.00;;;;;;;16.99;nan;99443.66;6244328;22;20084;-75
2023/07/29 10:04:01;;;;;;;0.00;0.00;;;;;;;16.34;nan;99459.47;6273355;22;20007;-77
2023/07/29 10:06:28;;;;;;;0.00;0.00;;;;;;;16.05;nan;99459.03;6219839;22;20012;-75
2023/07/29 10:08:56;;;;;;;0.00;0.00;;;;;;;16.13;nan;99460.16;6221353;22;20031;-78
2023/07/29 10:11:22;;;;;;;0.00;0.00;;;;;;;16.50;nan;99449.53;6221682;22;20098;-77
2023/07/29 10:13:48;;;;;;;0.00;0.00;;;;;;;17.11;nan;99445.72;6273471;22;20004;-76
2023/07/29 10:16:14;;;;;;;0.00;0.00;;;;;;;18.29;nan;99449.34;6241414;22;20061;-76
2023/07/29 10:18:41;;;;;;;0.00;0.00;;;;;;;20.85;nan;99450.66;6214801;23;20024;-77
2023/07/29 10:21:11;;;;;;;0.00;0.00;;;;;;;21.84;nan;99444.16;6242050;23;20061;-75
2023/07/29 10:23:41;;;;;;;0.00;0.00;;;;;;;21.89;nan;99441.91;6241586;23;20004;-77
2023/07/29 10:26:10;;;;;;;0.00;0.00;;;;;;;21.60;nan;99451.63;6242657;22;20039;-75
2023/07/29 10:28:46;;;;;;;0.00;0.00;;;;;;;22.48;nan;99459.34;6241588;23;20016;-77
2023/07/29 10:31:12;;;;;;;0.00;0.00;;;;;;;25.09;nan;99455.97;6241517;23;20110;-76
2023/07/29 10:33:39;;;;;;;0.00;0.00;;;;;;;24.30;nan;99463.59;6241683;23;20012;-76
2023/07/29 10:36:05;;;;;;;0.00;0.00;;;;;;;23.27;nan;99451.50;6241626;23;20443;-78
2023/07/29 10:38:31;;;;;;;0.00;0.00;;;;;;;22.54;nan;99467.41;6216316;23;20016;-76
2023/07/29 10:40:58;;;;;;;0.00;0.00;;;;;;;21.85;nan;99459.69;6216546;23;20011;-76
2023/07/29 10:43:35;;;;;;;0.00;0.00;;;;;;;21.42;nan;99468.69;6242797;23;20087;-76
2023/07/29 10:46:21;;;;;;;0.00;0.00;;;;;;;20.90;nan;99476.19;6242429;23;20066;-76
2023/07/29 10:48:56;;;;;;;0.00;0.00;;;;;;;20.48;nan;99479.44;6218330;23;20018;-77
2023/07/29 10:51:36;;;;;;;0.00;0.00;;;;;;;20.02;nan;99485.34;6243563;23;20422;-76
2023/07/29 10:54:03;;;;;;;0.00;0.00;;;;;;;19.56;nan;99487.53;6244116;23;20007;-76
2023/07/29 10:56:42;;;;;;;0.00;0.00;;;;;;;19.21;nan;99488.03;6245999;22;20000;-74
2023/07/29 10:59:19;;;;;;;0.00;0.00;;;;;;;19.00;nan;99488.16;6245849;22;20011;-76
2023/07/29 11:02:18;;;;;;;0.00;0.00;;;;;;;18.90;nan;99497.72;6244041;23;20004;-75
2023/07/29 11:04:50;;;;;;;0.00;0.00;;;;;;;18.90;nan;99494.94;6243938;23;20007;-76
2023/07/29 11:07:23;;;;;;;0.00;0.00;;;;;;;19.17;nan;99489.88;6219165;23;20027;-77
2023/07/29 11:09:48;;;;;;;0.00;0.00;;;;;;;19.36;nan;99495.66;6245082;22;19996;-75
2023/07/29 11:12:43;;;;;;;0.00;0.00;;;;;;;19.51;nan;99485.78;6244657;23;20406;-76
2023/07/29 11:15:16;;;;;;;0.00;0.00;;;;;;;19.74;nan;99484.47;6243531;23;20011;-77
2023/07/29 11:17:55;;;;;;;0.00;0.00;;;;;;;20.09;nan;99481.94;6269594;22;20035;-77
2023/07/29 11:20:26;;;;;;;0.00;0.00;;;;;;;20.65;nan;99478.31;6222893;22;20375;-77
2023/07/29 11:22:56;;;;;;;0.00;0.00;;;;;;;21.47;nan;99487.06;6275568;22;20004;-76
2023/07/29 11:25:23;;;;;;;0.00;0.00;;;;;;;22.11;nan;99492.44;6221262;22;20085;-77
2023/07/29 11:27:51;;;;;;;0.00;0.00;;;;;;;23.96;nan;99488.75;6248532;22;20007;-76
2023/07/29 11:30:16;;;;;;;0.00;0.00;;;;;;;27.61;nan;99484.72;6247499;22;20090;-76
2023/07/29 11:32:44;;;;;;;0.00;0.00;;;;;;;27.60;nan;99494.34;6247369;22;20039;-76
2023/07/29 11:35:19;;;;;;;0.00;0.00;;;;;;;30.51;nan;99492.44;6275873;22;20007;-76
2023/07/29 11:37:57;;;;;;;0.00;0.00;;;;;;;34.11;nan;99484.66;6223269;22;20011;-77
2023/07/29 11:40:23;;;;;;;0.00;0.00;;;;;;;36.68;nan;99478.22;6222311;22;20130;-77
2023/07/29 11:42:51;;;;;;;0.00;0.00;;;;;;;38.82;nan;99487.44;6275894;22;20064;-77
2023/07/29 11:45:18;;;;;;;0.00;0.00;;;;;;;39.99;nan;99474.50;6247842;22;20418;-77
2023/07/29 11:47:44;;;;;;;0.00;0.00;;;;;;;41.01;nan;99471.19;6246152;22;20000;-79
2023/07/29 11:50:13;;;;;;;0.00;0.00;;;;;;;41.93;nan;99468.09;6274338;22;20012;-76
2023/07/29 11:52:41;;;;;;;0.00;0.00;;;;;;;42.21;nan;99476.97;6275265;22;20031;-77